Townsville, Australia
Current Conditions -  °F | °C
As of 12:00 AM on Thursday 23 Oct 2014 (Local Time) from YBTL Reporting Station
Scattered Clouds Scattered Clouds  
Wind Chill: 73°   Ceiling: Unl
Heat Index: 73°   Visibility: 6mi
Dew Point: 63°   Wind: 9mph
Humidity: 69%   Direction: 110°ESE
Pressure: 30.09"   Gusts: NA
Location:  19.27°S, 146.81°E
Report Text: YBTL 221400Z AUTO 11008KT 9999 // SCT031 SCT037 SCT051 23/17 Q1019
Loading
Personal Weather Stations






























Interactive Weather Map
Tropical Storm Tracking
New forecast layout! Learn more

10-Day Weather Forecast

Advertisements
Track Severe Weather on mobile